createdAt,value
2023-04-26T19:39:25.773Z,9.33
2023-04-26T19:40:25.704Z,9.37
2023-04-26T19:41:25.641Z,9.34
2023-04-26T19:42:25.611Z,9.33
2023-04-26T19:43:25.540Z,9.31
2023-04-26T19:44:25.483Z,9.42
2023-04-26T19:45:25.438Z,9.22
2023-04-26T19:46:25.453Z,9.30
2023-04-26T19:47:25.388Z,9.21
2023-04-26T19:48:25.293Z,9.24
2023-04-26T19:49:27.844Z,9.19
2023-04-26T19:50:25.201Z,9.22
2023-04-26T19:51:25.151Z,9.21
2023-04-26T19:52:25.098Z,9.19
2023-04-26T19:53:25.055Z,9.18
2023-04-26T19:54:25.007Z,9.18
2023-04-26T19:55:26.691Z,9.19
2023-04-26T19:56:24.917Z,9.16
2023-04-26T19:57:24.864Z,9.09
2023-04-26T19:58:24.834Z,9.13
2023-04-26T19:59:24.781Z,9.15
2023-04-26T20:00:24.733Z,9.05
2023-04-26T20:01:24.694Z,9.02
2023-04-26T20:02:24.720Z,9.09
2023-04-26T20:03:24.836Z,9.13
2023-04-26T20:04:24.704Z,9.03
2023-04-26T20:05:24.498Z,9.13
2023-04-26T20:06:24.448Z,9.16
2023-04-26T20:07:24.415Z,9.12
2023-04-26T20:08:24.358Z,9.08
2023-04-26T20:09:24.312Z,9.15
2023-04-26T20:10:24.268Z,9.03
2023-04-26T20:11:24.250Z,9.03
2023-04-26T20:12:24.172Z,9.02
2023-04-26T20:13:24.130Z,9.05
2023-04-26T20:14:24.094Z,9.05
2023-04-26T20:15:24.041Z,9.08
2023-04-26T20:16:24.051Z,9.05
2023-04-26T20:17:23.987Z,9.03
2023-04-26T20:18:23.904Z,9.09
2023-04-26T20:19:23.860Z,9.08
2023-04-26T20:20:23.805Z,9.15
2023-04-26T20:21:23.760Z,8.99
2023-04-26T20:22:23.725Z,9.11
2023-04-26T20:23:23.684Z,9.09
2023-04-26T20:24:23.620Z,9.05
2023-04-26T20:25:23.583Z,9.00
2023-04-26T20:26:23.533Z,8.97
2023-04-26T20:27:23.504Z,9.08
2023-04-26T20:28:23.437Z,9.00
2023-04-26T20:29:23.394Z,8.93
2023-04-26T20:30:23.350Z,8.92
2023-04-26T20:31:23.353Z,9.02
2023-04-26T20:32:23.475Z,8.97
2023-04-26T20:33:23.212Z,8.97
2023-04-26T20:34:23.183Z,9.00
2023-04-26T20:35:23.134Z,8.87
2023-04-26T20:36:23.107Z,8.82
2023-04-26T20:37:23.058Z,8.92
2023-04-26T20:38:22.993Z,8.92
2023-04-26T20:39:22.940Z,8.96
2023-04-26T20:40:22.896Z,8.90
2023-04-26T20:41:22.849Z,8.93
2023-04-26T20:42:22.798Z,8.95
2023-04-26T20:43:22.790Z,8.93
2023-04-26T20:44:22.739Z,8.87
2023-04-26T20:45:22.661Z,8.90
2023-04-26T20:46:22.634Z,8.86
2023-04-26T20:47:22.594Z,8.86
2023-04-26T20:48:22.530Z,8.87
2023-04-26T20:49:22.492Z,8.87
2023-04-26T20:50:22.459Z,8.75
2023-04-26T20:51:22.397Z,8.78
2023-04-26T20:52:22.350Z,8.89
2023-04-26T20:53:22.302Z,8.82
2023-04-26T20:54:22.256Z,8.74
2023-04-26T20:55:22.267Z,8.81
2023-04-26T20:56:22.173Z,8.74
2023-04-26T20:57:22.131Z,8.75
2023-04-26T20:58:22.075Z,8.81
2023-04-26T20:59:23.509Z,8.77
2023-04-26T21:00:21.986Z,8.75
2023-04-26T21:01:21.948Z,8.81
2023-04-26T21:02:22.040Z,8.72
2023-04-26T21:03:22.069Z,8.66
2023-04-26T21:04:22.153Z,8.74
2023-04-26T21:05:21.759Z,8.74
2023-04-26T21:06:21.718Z,8.71
2023-04-26T21:07:21.689Z,8.66
2023-04-26T21:08:21.622Z,8.68
2023-04-26T21:09:21.642Z,8.60
2023-04-26T21:10:21.532Z,8.66
2023-04-26T21:11:21.489Z,8.71
2023-04-26T21:12:21.439Z,8.74
2023-04-26T21:13:21.396Z,8.68
2023-04-26T21:14:21.348Z,8.69
2023-04-26T21:15:21.324Z,8.64
2023-04-26T21:16:21.429Z,8.64
2023-04-26T21:17:21.238Z,8.66
2023-04-26T21:18:21.166Z,8.54
2023-04-26T21:19:21.120Z,8.61
2023-04-26T21:20:21.086Z,8.69
2023-04-26T21:21:21.032Z,8.59
2023-04-26T21:22:20.981Z,8.60
2023-04-26T21:23:20.944Z,8.61
2023-04-26T21:24:20.899Z,8.52
2023-04-26T21:25:20.854Z,8.44
2023-04-26T21:26:20.816Z,8.45
2023-04-26T21:27:20.773Z,8.45
2023-04-26T21:28:20.720Z,8.46
2023-04-26T21:30:20.624Z,8.35
2023-04-26T21:31:20.640Z,8.41
2023-04-26T21:32:20.539Z,8.38
2023-04-26T21:33:20.502Z,8.28
2023-04-26T21:34:20.434Z,8.36
2023-04-26T21:35:20.409Z,8.26
2023-04-26T21:36:20.351Z,8.31
2023-04-26T21:37:20.293Z,8.26
2023-04-26T21:38:20.258Z,8.32
2023-04-26T21:39:20.204Z,8.28
2023-04-26T21:40:20.169Z,8.18
2023-04-26T21:42:20.069Z,8.20
2023-04-26T21:43:20.063Z,8.21
2023-04-26T21:45:19.934Z,8.18
2023-04-26T21:46:19.900Z,8.13
2023-04-26T21:48:19.818Z,8.17
2023-04-26T21:49:19.747Z,8.13
2023-04-26T21:50:19.705Z,8.11
2023-04-26T21:51:19.863Z,8.09
2023-04-26T21:53:19.596Z,8.05
2023-04-26T21:54:19.540Z,8.01
2023-04-26T21:55:19.474Z,8.03
2023-04-26T21:56:19.435Z,8.02
2023-04-26T21:57:19.384Z,7.96
2023-04-26T21:59:19.487Z,7.95
2023-04-26T22:00:19.254Z,7.93
2023-04-26T22:01:19.239Z,7.93
2023-04-26T22:02:19.304Z,7.90
2023-04-26T22:03:19.389Z,7.93
2023-04-26T22:05:19.066Z,7.81
2023-04-26T22:08:18.879Z,7.74
2023-04-26T22:09:18.848Z,7.74
2023-04-26T22:10:18.785Z,7.74
2023-04-26T22:11:18.748Z,7.74
2023-04-26T22:12:18.696Z,7.75
2023-04-26T22:14:18.599Z,7.75
2023-04-26T22:15:18.552Z,7.70
2023-04-26T22:16:18.536Z,7.69
2023-04-26T22:17:18.459Z,7.59
2023-04-26T22:18:18.420Z,7.56
2023-04-26T22:19:18.375Z,7.61
2023-04-26T22:20:18.323Z,7.61
2023-04-26T22:21:18.292Z,7.61
2023-04-26T22:22:18.231Z,7.56
2023-04-26T22:23:18.187Z,7.53
2023-04-26T22:24:18.134Z,7.47
2023-04-26T22:25:18.089Z,7.50
2023-04-26T22:26:18.044Z,7.51
2023-04-26T22:27:18.040Z,7.47
2023-04-26T22:28:17.953Z,7.41
2023-04-26T22:29:17.924Z,7.31
2023-04-26T22:30:25.582Z,7.39
2023-04-26T22:32:17.837Z,7.37
2023-04-26T22:34:17.678Z,7.39
2023-04-26T22:35:17.635Z,7.25
2023-04-26T22:36:17.586Z,7.28
2023-04-26T22:37:21.308Z,7.21
2023-04-26T22:38:17.511Z,7.23
2023-04-26T22:40:17.408Z,7.13
2023-04-26T22:41:17.349Z,7.18
2023-04-26T22:42:17.314Z,7.15
2023-04-26T22:45:17.186Z,7.03
2023-04-26T22:46:17.190Z,7.08
2023-04-26T22:48:17.025Z,6.95
2023-04-26T22:49:16.996Z,6.96
2023-04-26T22:50:16.928Z,6.93
2023-04-26T22:53:54.300Z,6.87
2023-04-26T22:56:06.645Z,6.86
2023-04-26T22:59:06.503Z,6.68
2023-04-26T23:00:06.467Z,6.71
2023-04-26T23:01:06.452Z,6.67
2023-04-26T23:07:09.364Z,6.49
2023-04-26T23:08:06.498Z,6.49
2023-04-26T23:09:06.063Z,6.46
2023-04-26T23:10:49.369Z,6.38
2023-04-26T23:11:52.554Z,6.34
2023-04-26T23:12:49.272Z,6.26
2023-04-26T23:13:49.224Z,6.26
2023-04-26T23:15:49.141Z,6.31
2023-04-26T23:16:49.124Z,6.25
2023-04-26T23:17:49.127Z,6.17
2023-04-26T23:18:48.993Z,6.19
2023-04-26T23:19:48.948Z,6.13
2023-04-26T23:20:48.897Z,6.15
2023-04-26T23:21:48.860Z,6.10
2023-04-26T23:22:48.803Z,6.01
2023-04-26T23:24:48.732Z,5.97
2023-04-26T23:25:48.663Z,6.02
2023-04-26T23:26:48.656Z,5.98
2023-04-26T23:28:48.521Z,5.92
2023-04-26T23:29:48.480Z,5.99
2023-04-26T23:30:48.422Z,5.88
2023-04-26T23:31:48.626Z,5.90
2023-04-26T23:32:48.576Z,5.94
2023-04-26T23:34:48.248Z,5.81
2023-04-26T23:39:48.009Z,5.70
2023-04-26T23:40:47.977Z,5.74
2023-04-26T23:41:48.107Z,5.65
2023-04-26T23:42:47.868Z,5.73
2023-04-26T23:44:47.767Z,5.59
2023-04-26T23:46:47.889Z,5.59
2023-04-26T23:48:47.588Z,5.51
2023-04-26T23:49:48.758Z,5.55
2023-04-26T23:51:47.441Z,5.49
2023-04-26T23:52:47.389Z,5.43
2023-04-26T23:53:47.343Z,5.43
2023-04-26T23:54:47.300Z,5.36
2023-04-26T23:55:47.248Z,5.40
2023-04-26T23:57:47.169Z,5.33
2023-04-26T23:58:47.125Z,5.33
2023-04-26T23:59:47.062Z,5.22
